createdAt,value
2022-09-26T00:00:31.309Z,13.80
2022-09-26T00:05:33.975Z,13.80
2022-09-26T00:10:35.838Z,13.80
2022-09-26T00:15:37.693Z,13.70
2022-09-26T00:20:39.559Z,13.70
2022-09-26T00:25:48.993Z,13.70
2022-09-26T00:30:51.064Z,13.70
2022-09-26T00:35:54.472Z,13.70
2022-09-26T00:40:56.563Z,13.60
2022-09-26T00:46:01.458Z,13.60
2022-09-26T00:51:04.349Z,13.60
2022-09-26T00:56:11.241Z,13.60
2022-09-26T01:01:13.710Z,13.60
2022-09-26T01:06:16.766Z,13.60
2022-09-26T01:11:19.318Z,13.50
2022-09-26T01:16:21.394Z,13.50
2022-09-26T01:21:38.635Z,13.40
2022-09-26T01:26:50.273Z,13.40
2022-09-26T01:32:16.768Z,13.40
2022-09-26T01:37:33.244Z,13.40
2022-09-26T01:43:05.204Z,13.40
2022-09-26T01:48:17.089Z,13.30
2022-09-26T01:53:26.036Z,13.30
2022-09-26T01:58:30.811Z,13.30
2022-09-26T02:03:38.438Z,13.30
2022-09-26T02:08:42.368Z,13.30
2022-09-26T02:13:55.632Z,13.30
2022-09-26T02:19:01.748Z,13.20
2022-09-26T02:24:03.730Z,13.20
2022-09-26T02:29:06.730Z,13.20
2022-09-26T02:34:08.849Z,13.30
2022-09-26T02:39:11.177Z,13.20
2022-09-26T02:44:39.054Z,13.20
2022-09-26T02:50:19.652Z,13.20
2022-09-26T02:55:24.072Z,13.20
2022-09-26T03:00:31.686Z,13.10
2022-09-26T03:05:35.189Z,13.10
2022-09-26T03:10:38.082Z,13.10
2022-09-26T03:15:42.372Z,13.10
2022-09-26T03:20:44.657Z,13.10
2022-09-26T03:26:12.551Z,13.00
2022-09-26T03:31:14.895Z,13.00
2022-09-26T03:36:16.832Z,13.00
2022-09-26T03:41:19.624Z,13.00
2022-09-26T03:46:21.508Z,13.00
2022-09-26T03:51:23.333Z,12.90
2022-09-26T03:56:26.919Z,13.00
2022-09-26T04:01:28.879Z,12.90
2022-09-26T04:06:30.777Z,12.90
2022-09-26T04:11:35.446Z,12.80
2022-09-26T04:16:37.301Z,12.80
2022-09-26T04:21:40.736Z,12.80
2022-09-26T04:26:44.274Z,12.80
2022-09-26T04:31:46.701Z,12.80
2022-09-26T04:36:50.180Z,12.80
2022-09-26T04:41:53.251Z,12.80
2022-09-26T04:46:55.193Z,12.80
2022-09-26T04:51:57.045Z,12.80
2022-09-26T04:57:00.354Z,12.80
2022-09-26T05:02:03.626Z,12.90
2022-09-26T05:07:05.652Z,12.80
2022-09-26T05:12:07.495Z,12.80
2022-09-26T05:17:11.026Z,12.90
2022-09-26T05:22:13.045Z,12.90
2022-09-26T05:27:15.268Z,12.90
2022-09-26T05:32:20.758Z,12.90
2022-09-26T05:37:22.593Z,12.90
2022-09-26T05:42:24.578Z,13.00
2022-09-26T05:47:31.309Z,13.00
2022-09-26T05:52:33.201Z,13.10
2022-09-26T05:57:35.050Z,13.10
2022-09-26T06:02:37.010Z,13.10
2022-09-26T06:07:38.914Z,13.20
2022-09-26T06:12:40.759Z,13.20
2022-09-26T06:17:42.599Z,13.40
2022-09-26T06:22:44.438Z,13.40
2022-09-26T06:27:46.531Z,13.60
2022-09-26T06:32:48.680Z,13.60
2022-09-26T06:37:50.521Z,13.60
2022-09-26T06:42:52.510Z,13.60
2022-09-26T06:47:54.783Z,13.50
2022-09-26T06:52:56.678Z,13.50
2022-09-26T06:57:58.757Z,13.50
2022-09-26T07:03:01.299Z,13.80
2022-09-26T07:08:04.807Z,14.20
2022-09-26T07:13:07.718Z,14.60
2022-09-26T07:18:10.229Z,15.00
2022-09-26T07:23:12.660Z,15.20
2022-09-26T07:28:14.506Z,15.50
2022-09-26T07:33:16.445Z,15.70
2022-09-26T07:38:18.274Z,15.70
2022-09-26T07:43:42.452Z,15.60
2022-09-26T07:49:03.649Z,15.90
2022-09-26T07:54:06.120Z,16.10
2022-09-26T07:59:08.473Z,16.30
2022-09-26T08:04:12.019Z,16.40
2022-09-26T08:09:13.993Z,16.70
2022-09-26T08:14:16.203Z,17.40
2022-09-26T08:19:18.100Z,17.90
2022-09-26T08:24:19.982Z,18.60
2022-09-26T08:29:30.900Z,19.30
2022-09-26T08:34:35.083Z,19.60
2022-09-26T08:39:36.953Z,19.70
2022-09-26T08:44:54.092Z,20.00
2022-09-26T08:50:01.736Z,20.40
2022-09-26T08:55:16.049Z,21.10
2022-09-26T09:00:26.055Z,21.30
2022-09-26T09:05:33.626Z,21.20
2022-09-26T09:10:47.485Z,20.60
2022-09-26T09:16:01.312Z,20.00
2022-09-26T09:21:41.810Z,20.10
2022-09-26T09:32:48.113Z,20.00
2022-09-26T09:37:52.380Z,19.80
2022-09-26T09:43:09.126Z,19.60
2022-09-26T09:48:13.229Z,20.00
2022-09-26T09:53:50.865Z,21.10
2022-09-26T09:59:04.917Z,21.80
2022-09-26T10:04:26.248Z,22.30
2022-09-26T10:09:39.457Z,21.50
2022-09-26T10:14:51.405Z,20.70
2022-09-26T10:19:53.305Z,20.30
2022-09-26T10:25:17.949Z,21.00
2022-09-26T10:30:20.129Z,21.70
2022-09-26T10:35:40.357Z,22.80
2022-09-26T10:40:58.269Z,23.40
2022-09-26T10:46:09.314Z,23.50
2022-09-26T10:51:29.536Z,22.80
2022-09-26T10:56:35.869Z,21.90
2022-09-26T11:01:43.126Z,21.30
2022-09-26T11:06:45.501Z,21.00
2022-09-26T11:11:50.657Z,20.80
2022-09-26T11:16:55.136Z,20.60
2022-09-26T11:22:12.215Z,20.50
2022-09-26T11:27:38.630Z,20.20
2022-09-26T11:32:43.369Z,19.90
2022-09-26T11:37:51.245Z,19.70
2022-09-26T11:43:02.108Z,19.50
2022-09-26T11:48:39.106Z,19.40
2022-09-26T11:54:00.966Z,19.30
2022-09-26T11:59:15.491Z,19.30
2022-09-26T12:04:58.786Z,19.30
2022-09-26T12:10:12.436Z,19.40
2022-09-26T12:15:34.147Z,19.60
2022-09-26T12:21:12.981Z,19.70
2022-09-26T12:26:23.615Z,20.00
2022-09-26T12:31:47.678Z,20.60
2022-09-26T12:36:56.071Z,21.30
2022-09-26T12:42:15.331Z,21.60
2022-09-26T12:47:30.010Z,21.70
2022-09-26T12:52:54.428Z,21.80
2022-09-26T12:58:29.217Z,21.80
2022-09-26T13:03:49.764Z,22.00
2022-09-26T13:09:25.892Z,21.60
2022-09-26T13:14:47.653Z,21.70
2022-09-26T13:19:51.537Z,21.90
2022-09-26T13:25:18.933Z,22.00
2022-09-26T13:30:28.504Z,22.00
2022-09-26T13:35:35.675Z,21.50
2022-09-26T13:40:57.904Z,21.10
2022-09-26T13:46:16.140Z,20.90
2022-09-26T13:51:24.807Z,20.60
2022-09-26T13:56:36.159Z,20.30
2022-09-26T14:02:15.979Z,20.00
2022-09-26T14:07:58.879Z,19.70
2022-09-26T14:13:06.561Z,19.60
2022-09-26T14:18:45.685Z,19.40
2022-09-26T14:23:49.379Z,19.30
2022-09-26T14:28:55.415Z,19.10
2022-09-26T14:34:21.504Z,19.00
2022-09-26T14:39:44.074Z,19.00
2022-09-26T14:44:50.556Z,18.90
2022-09-26T14:49:55.092Z,18.80
2022-09-26T14:55:01.230Z,18.80
2022-09-26T15:00:23.946Z,18.90
2022-09-26T15:05:26.113Z,18.90
2022-09-26T15:10:41.882Z,18.80
2022-09-26T15:16:08.246Z,18.80
2022-09-26T15:21:22.304Z,18.70
2022-09-26T15:26:26.991Z,18.60
2022-09-26T15:31:41.855Z,18.50
2022-09-26T15:36:45.563Z,18.40
2022-09-26T15:42:05.963Z,18.20
2022-09-26T15:47:28.442Z,18.10
2022-09-26T15:52:35.425Z,18.00
2022-09-26T15:57:37.337Z,17.80
2022-09-26T16:02:39.284Z,17.70
2022-09-26T16:07:47.947Z,17.50
2022-09-26T16:12:49.950Z,17.30
2022-09-26T16:17:54.048Z,17.20
2022-09-26T16:23:04.798Z,17.00
2022-09-26T16:28:10.433Z,16.90
2022-09-26T16:33:27.663Z,16.80
2022-09-26T16:38:33.639Z,16.50
2022-09-26T16:43:37.090Z,16.30
2022-09-26T16:48:52.104Z,16.10
2022-09-26T16:54:08.922Z,16.00
2022-09-26T16:59:37.014Z,15.80
2022-09-26T17:04:39.478Z,15.70
2022-09-26T17:09:42.842Z,15.50
2022-09-26T17:14:48.112Z,15.30
2022-09-26T17:19:56.748Z,15.10
2022-09-26T17:25:00.996Z,15.00
2022-09-26T17:30:05.069Z,14.80
2022-09-26T17:35:13.516Z,14.70
2022-09-26T17:40:19.524Z,14.80
2022-09-26T17:45:25.220Z,14.80
2022-09-26T17:50:29.554Z,14.70
2022-09-26T17:55:32.130Z,14.70
2022-09-26T18:00:38.297Z,14.60
2022-09-26T18:05:40.897Z,14.50
2022-09-26T18:10:50.212Z,14.50
2022-09-26T18:15:57.672Z,14.50
2022-09-26T18:21:04.001Z,14.50
2022-09-26T18:26:08.089Z,14.50
2022-09-26T18:31:11.312Z,14.50
2022-09-26T18:36:13.337Z,14.50
2022-09-26T18:41:18.773Z,14.50
2022-09-26T18:46:24.787Z,14.50
2022-09-26T18:51:27.568Z,14.50
2022-09-26T18:56:48.950Z,14.50
2022-09-26T19:01:51.210Z,14.40
2022-09-26T19:07:05.775Z,14.40
2022-09-26T19:12:11.463Z,14.40
2022-09-26T19:17:13.713Z,14.40
2022-09-26T19:22:17.396Z,14.40
2022-09-26T19:27:23.984Z,14.30
2022-09-26T19:32:38.302Z,14.20
2022-09-26T19:37:40.235Z,14.10
2022-09-26T19:42:42.429Z,14.00
2022-09-26T19:47:51.292Z,13.90
2022-09-26T19:52:54.347Z,13.80
2022-09-26T19:58:02.618Z,13.80
2022-09-26T20:03:04.579Z,13.70
2022-09-26T20:08:10.240Z,13.70
2022-09-26T20:13:12.420Z,13.60
2022-09-26T20:18:24.164Z,13.60
2022-09-26T20:23:26.637Z,13.60
2022-09-26T20:28:28.533Z,13.60
2022-09-26T20:33:30.466Z,13.50
2022-09-26T20:38:41.286Z,13.50
2022-09-26T20:43:44.727Z,13.40
2022-09-26T20:48:47.845Z,13.40
2022-09-26T20:53:50.466Z,13.30
2022-09-26T20:58:52.565Z,13.30
2022-09-26T21:03:55.381Z,13.30
2022-09-26T21:08:57.632Z,13.30
2022-09-26T21:13:59.642Z,13.30
2022-09-26T21:19:01.562Z,13.20
2022-09-26T21:24:03.847Z,13.30
2022-09-26T21:29:09.463Z,13.30
2022-09-26T21:34:23.571Z,13.30
2022-09-26T21:39:26.089Z,13.20
2022-09-26T21:44:32.090Z,13.20
2022-09-26T21:49:34.329Z,13.20
2022-09-26T21:54:39.673Z,13.20
2022-09-26T21:59:42.088Z,13.20
2022-09-26T22:04:43.970Z,13.20
2022-09-26T22:09:46.057Z,13.20
2022-09-26T22:14:48.128Z,13.20
2022-09-26T22:19:51.337Z,13.20
2022-09-26T22:24:54.050Z,13.10
2022-09-26T22:29:55.921Z,13.10
2022-09-26T22:34:57.843Z,13.10
2022-09-26T22:39:59.754Z,13.00
2022-09-26T22:45:01.898Z,13.00
2022-09-26T22:50:04.144Z,13.00
2022-09-26T22:55:07.891Z,13.00
2022-09-26T23:00:11.009Z,13.00
2022-09-26T23:05:12.912Z,12.90
2022-09-26T23:10:14.844Z,12.90
2022-09-26T23:15:18.324Z,12.90
2022-09-26T23:20:20.540Z,12.80
2022-09-26T23:25:22.495Z,12.70
2022-09-26T23:30:24.397Z,12.70
2022-09-26T23:35:26.404Z,12.50
2022-09-26T23:40:29.661Z,12.40
2022-09-26T23:45:31.597Z,12.30
2022-09-26T23:50:33.572Z,12.20
2022-09-26T23:55:35.672Z,12.20
